createdAt,value
2018-02-14T00:02:14.731Z,26.43
2018-02-14T00:06:58.041Z,23.00
2018-02-14T00:11:41.403Z,24.83
2018-02-14T00:16:25.518Z,21.87
2018-02-14T00:21:08.847Z,22.97
2018-02-14T00:25:53.022Z,25.57
2018-02-14T00:30:36.401Z,22.93
2018-02-14T00:35:19.839Z,24.03
2018-02-14T00:40:03.165Z,22.70
2018-02-14T00:44:46.526Z,23.80
2018-02-14T00:49:29.866Z,24.17
2018-02-14T00:54:13.224Z,22.30
2018-02-14T00:58:56.573Z,24.47
2018-02-14T01:03:39.919Z,25.07
2018-02-14T01:08:23.261Z,23.97
2018-02-14T01:13:06.713Z,25.53
2018-02-14T01:17:50.107Z,25.77
2018-02-14T01:22:33.470Z,24.27
2018-02-14T01:27:17.558Z,23.83
2018-02-14T01:32:01.662Z,23.03
2018-02-14T01:36:45.046Z,23.33
2018-02-14T01:41:28.456Z,25.87
2018-02-14T01:46:11.803Z,25.37
2018-02-14T01:50:55.142Z,25.07
2018-02-14T01:55:38.482Z,24.30
2018-02-14T02:00:21.829Z,25.07
2018-02-14T02:05:05.229Z,23.37
2018-02-14T02:09:49.419Z,19.47
2018-02-14T02:14:32.788Z,21.13
2018-02-14T02:19:16.142Z,21.63
2018-02-14T02:24:00.246Z,20.97
2018-02-14T02:28:44.372Z,21.03
2018-02-14T02:33:28.457Z,18.57
2018-02-14T02:38:11.846Z,24.07
2018-02-14T02:42:55.230Z,21.83
2018-02-14T02:47:39.314Z,20.80
2018-02-14T02:52:22.722Z,21.73
2018-02-14T02:57:06.920Z,21.17
2018-02-14T03:01:50.462Z,25.13
2018-02-14T03:06:33.802Z,22.47
2018-02-14T03:11:17.142Z,18.90
2018-02-14T03:16:01.151Z,23.03
2018-02-14T03:20:44.475Z,20.80
2018-02-14T03:25:27.814Z,19.27
2018-02-14T03:30:11.181Z,18.77
2018-02-14T03:34:55.347Z,18.63
2018-02-14T03:39:38.702Z,20.93
2018-02-14T03:44:22.117Z,20.60
2018-02-14T03:49:05.483Z,20.77
2018-02-14T03:53:48.923Z,18.53
2018-02-14T03:58:32.364Z,19.87
2018-02-14T04:03:15.758Z,20.23
2018-02-14T04:07:59.118Z,15.33
2018-02-14T04:12:42.445Z,18.53
2018-02-14T04:17:26.542Z,19.17
2018-02-14T04:22:09.890Z,16.03
2018-02-14T04:26:53.226Z,16.70
2018-02-14T04:31:36.636Z,16.20
2018-02-14T04:36:19.980Z,16.47
2018-02-14T04:41:03.315Z,18.67
2018-02-14T04:45:46.614Z,18.60
2018-02-14T04:50:30.026Z,18.43
2018-02-14T04:55:14.109Z,18.63
2018-02-14T04:59:57.487Z,19.83
2018-02-14T05:04:40.825Z,16.80
2018-02-14T05:09:24.188Z,16.67
2018-02-14T05:14:07.756Z,22.37
2018-02-14T05:18:51.225Z,17.73
2018-02-14T05:23:34.545Z,24.60
2018-02-14T05:28:17.962Z,21.00
2018-02-14T05:33:01.360Z,20.73
2018-02-14T05:37:44.785Z,20.27
2018-02-14T05:42:28.120Z,22.03
2018-02-14T05:47:11.546Z,23.37
2018-02-14T05:51:54.935Z,31.27
2018-02-14T05:56:38.229Z,47.03
2018-02-14T06:01:21.634Z,21.20
2018-02-14T06:06:06.547Z,22.20
2018-02-14T06:10:50.760Z,21.03
2018-02-14T06:15:34.123Z,19.97
2018-02-14T06:20:18.290Z,19.13
2018-02-14T06:25:01.653Z,20.73
2018-02-14T06:29:45.036Z,21.20
2018-02-14T06:39:27.267Z,23.30
2018-02-14T06:44:10.629Z,25.27
2018-02-14T06:48:53.977Z,18.37
2018-02-14T06:53:37.400Z,17.47
2018-02-14T06:58:20.783Z,19.37
2018-02-14T07:03:04.183Z,21.63
2018-02-14T07:07:47.522Z,16.27
2018-02-14T07:12:32.217Z,17.23
2018-02-14T07:17:15.611Z,19.67
2018-02-14T07:22:00.685Z,19.63
2018-02-14T07:26:44.858Z,21.07
2018-02-14T07:31:28.216Z,16.00
2018-02-14T07:36:11.636Z,17.87
2018-02-14T07:40:54.988Z,19.40
2018-02-14T07:45:38.376Z,21.83
2018-02-14T07:50:22.510Z,17.63
2018-02-14T07:55:05.976Z,18.10
2018-02-14T07:59:50.107Z,21.03
2018-02-14T08:04:33.476Z,22.83
2018-02-14T08:09:16.849Z,15.63
2018-02-14T08:14:00.146Z,18.40
2018-02-14T08:18:43.490Z,20.50
2018-02-14T08:23:26.858Z,20.10
2018-02-14T08:28:11.005Z,16.63
2018-02-14T08:32:54.413Z,19.23
2018-02-14T08:37:37.835Z,22.33
2018-02-14T08:42:21.357Z,23.13
2018-02-14T08:47:04.706Z,18.33
2018-02-14T08:51:48.145Z,22.40
2018-02-14T08:56:32.307Z,23.83
2018-02-14T09:01:15.707Z,20.03
2018-02-14T09:05:59.867Z,18.97
2018-02-14T09:10:43.228Z,19.23
2018-02-14T09:15:26.582Z,21.17
2018-02-14T09:20:09.983Z,20.53
2018-02-14T09:25:11.278Z,21.50
2018-02-14T09:29:54.651Z,23.87
2018-02-14T09:39:56.528Z,18.97
2018-02-14T09:44:39.874Z,22.00
2018-02-14T09:49:23.251Z,20.70
2018-02-14T09:54:07.392Z,17.63
2018-02-14T09:58:50.768Z,20.33
2018-02-14T10:03:34.249Z,18.00
2018-02-14T10:08:18.376Z,20.50
2018-02-14T10:13:01.709Z,20.97
2018-02-14T10:17:45.076Z,18.70
2018-02-14T10:22:28.445Z,18.73
2018-02-14T10:27:11.799Z,17.63
2018-02-14T10:31:55.210Z,20.77
2018-02-14T10:36:39.474Z,21.80
2018-02-14T10:41:23.573Z,20.13
2018-02-14T10:46:06.945Z,20.27
2018-02-14T10:50:50.335Z,18.77
2018-02-14T10:55:33.828Z,21.23
2018-02-14T11:00:22.758Z,21.60
2018-02-14T11:05:11.713Z,23.47
2018-02-14T11:09:55.131Z,17.60
2018-02-14T11:14:39.246Z,21.37
2018-02-14T11:19:23.504Z,20.10
2018-02-14T11:24:07.113Z,19.10
2018-02-14T11:28:50.536Z,21.50
2018-02-14T11:33:34.638Z,18.90
2018-02-14T11:38:17.977Z,17.00
2018-02-14T11:43:01.331Z,15.30
2018-02-14T11:47:44.719Z,14.97
2018-02-14T11:52:28.147Z,15.43
2018-02-14T11:57:11.471Z,16.03
2018-02-14T12:01:55.778Z,20.57
2018-02-14T12:06:40.080Z,16.57
2018-02-14T12:11:23.844Z,17.20
2018-02-14T12:16:08.287Z,17.50
2018-02-14T12:20:51.629Z,17.03
2018-02-14T12:25:36.413Z,18.33
2018-02-14T12:30:22.012Z,16.00
2018-02-14T12:35:05.409Z,18.63
2018-02-14T12:39:49.705Z,16.43
2018-02-14T12:44:33.361Z,11.37
2018-02-14T12:49:16.682Z,12.30
2018-02-14T12:54:00.102Z,11.47
2018-02-14T12:58:43.938Z,15.60
2018-02-14T13:03:27.481Z,11.50
2018-02-14T13:08:10.832Z,12.97
2018-02-14T13:12:54.940Z,7.90
2018-02-14T13:17:39.619Z,8.97
2018-02-14T13:22:23.042Z,9.33
2018-02-14T13:27:07.035Z,11.77
2018-02-14T13:31:50.407Z,7.60
2018-02-14T13:36:33.785Z,9.57
2018-02-14T13:41:17.196Z,8.70
2018-02-14T13:46:00.634Z,11.07
2018-02-14T13:50:44.013Z,8.90
2018-02-14T13:55:27.478Z,12.17
2018-02-14T14:00:10.829Z,8.77
2018-02-14T14:04:54.245Z,13.93
2018-02-14T14:09:37.682Z,12.27
2018-02-14T14:14:21.074Z,12.73
2018-02-14T14:19:04.681Z,9.77
2018-02-14T14:23:55.628Z,11.80
2018-02-14T14:28:39.016Z,10.37
2018-02-14T14:33:43.029Z,11.23
2018-02-14T14:38:27.417Z,11.40
2018-02-14T14:43:11.243Z,12.03
2018-02-14T14:48:01.892Z,10.27
2018-02-14T14:52:50.423Z,12.67
2018-02-14T14:57:34.042Z,12.50
2018-02-14T15:02:17.605Z,15.40
2018-02-14T15:07:01.567Z,15.00
2018-02-14T15:11:48.213Z,15.03
2018-02-14T15:16:34.140Z,13.07
2018-02-14T15:21:17.792Z,12.47
2018-02-14T15:26:01.790Z,14.67
2018-02-14T15:30:45.402Z,10.10
2018-02-14T15:35:29.558Z,11.80
2018-02-14T15:40:13.716Z,10.43
2018-02-14T15:44:57.040Z,11.50
2018-02-14T15:49:40.418Z,11.50
2018-02-14T15:54:24.126Z,13.43
2018-02-14T15:59:07.466Z,15.63
2018-02-14T16:03:51.122Z,13.57
2018-02-14T16:08:34.560Z,15.57
2018-02-14T16:13:18.004Z,14.37
2018-02-14T16:18:01.446Z,18.83
2018-02-14T16:22:45.119Z,16.20
2018-02-14T16:27:29.222Z,17.97
2018-02-14T16:32:12.625Z,20.80
2018-02-14T16:36:56.009Z,16.57
2018-02-14T16:41:39.358Z,22.27
2018-02-14T16:46:22.807Z,17.97
2018-02-14T16:51:06.232Z,18.77
2018-02-14T16:55:49.579Z,21.90
2018-02-14T17:00:32.916Z,21.07
2018-02-14T17:05:16.339Z,19.50
2018-02-14T17:09:59.788Z,22.00
2018-02-14T17:14:43.143Z,19.63
2018-02-14T17:19:26.489Z,22.33
2018-02-14T17:24:09.836Z,26.87
2018-02-14T17:28:53.957Z,27.30
2018-02-14T17:33:37.305Z,24.13
2018-02-14T17:38:20.683Z,30.80
2018-02-14T17:43:04.024Z,23.50
2018-02-14T17:47:47.349Z,29.63
2018-02-14T17:52:30.723Z,29.97
2018-02-14T17:57:14.085Z,29.57
2018-02-14T18:01:58.194Z,31.60
2018-02-14T18:06:41.556Z,34.70
2018-02-14T18:11:24.922Z,36.07
2018-02-14T18:16:12.999Z,39.20
2018-02-14T18:20:56.364Z,35.73
2018-02-14T18:25:44.184Z,36.70
2018-02-14T18:30:31.933Z,37.23
2018-02-14T18:35:16.420Z,38.10
2018-02-14T18:39:59.769Z,51.23
2018-02-14T18:44:43.135Z,41.40
2018-02-14T18:49:27.300Z,36.67
2018-02-14T18:54:11.476Z,37.67
2018-02-14T18:58:55.585Z,38.33
2018-02-14T19:03:38.979Z,43.20
2018-02-14T19:08:23.103Z,43.70
2018-02-14T19:13:06.507Z,43.33
2018-02-14T19:17:49.899Z,31.90
2018-02-14T19:22:33.312Z,37.43
2018-02-14T19:27:16.741Z,34.57
2018-02-14T19:32:00.433Z,32.80
2018-02-14T19:36:44.604Z,32.77
2018-02-14T19:41:28.336Z,34.20
2018-02-14T19:46:11.979Z,34.40
2018-02-14T19:50:55.393Z,33.40
2018-02-14T19:55:39.585Z,36.70
2018-02-14T20:00:23.066Z,35.73
2018-02-14T20:05:06.534Z,35.50
2018-02-14T20:09:49.939Z,34.60
2018-02-14T20:14:33.420Z,33.40
2018-02-14T20:19:16.890Z,31.20
2018-02-14T20:24:00.351Z,30.07
2018-02-14T20:28:43.756Z,35.97
2018-02-14T20:33:27.314Z,29.87
2018-02-14T20:38:10.720Z,33.00
2018-02-14T20:42:54.202Z,29.97
2018-02-14T20:47:49.450Z,30.07
2018-02-14T20:52:40.213Z,32.10
2018-02-14T20:57:25.744Z,32.70
2018-02-14T21:02:09.291Z,34.83
2018-02-14T21:06:52.876Z,30.97
2018-02-14T21:11:36.228Z,33.63
2018-02-14T21:16:19.542Z,34.40
2018-02-14T21:21:02.883Z,36.80
2018-02-14T21:25:46.261Z,31.13
2018-02-14T21:30:29.611Z,32.67
2018-02-14T21:35:13.026Z,32.97
2018-02-14T21:39:57.141Z,29.77
2018-02-14T21:44:41.335Z,33.90
2018-02-14T21:49:24.755Z,37.20
2018-02-14T21:54:08.835Z,37.27
2018-02-14T21:58:52.200Z,35.63
2018-02-14T22:03:35.599Z,32.30
2018-02-14T22:08:19.723Z,34.70
2018-02-14T22:13:03.068Z,39.13
2018-02-14T22:17:46.449Z,34.20
2018-02-14T22:22:29.738Z,37.77
2018-02-14T22:27:13.093Z,47.10
2018-02-14T22:31:56.475Z,49.43
2018-02-14T22:36:39.845Z,39.13
2018-02-14T22:41:23.191Z,31.57
2018-02-14T22:46:06.610Z,37.87
2018-02-14T22:50:49.966Z,30.63
2018-02-14T22:55:33.319Z,29.63
2018-02-14T23:00:21.502Z,34.17
2018-02-14T23:05:05.686Z,36.23
2018-02-14T23:09:49.071Z,32.47
2018-02-14T23:14:32.409Z,30.80
2018-02-14T23:19:15.740Z,31.43
2018-02-14T23:23:59.068Z,28.23
2018-02-14T23:28:42.429Z,26.10
2018-02-14T23:33:25.856Z,28.87
2018-02-14T23:38:09.234Z,26.90
2018-02-14T23:42:52.609Z,23.90
2018-02-14T23:47:35.924Z,25.10
2018-02-14T23:52:19.293Z,24.57
2018-02-14T23:57:02.595Z,23.40
